Time;durP1;ratioP1;P1;durP2;ratioP2;P2;SDS_P1;SDS_P2;PMS_P1;PMS_P2;Temp;Humidity;BMP_temperature;BMP_pressure;BME280_temperature;BME280_humidity;BME280_pressure;Samples;Min_cycle;Max_cycle;Signal;HPM_P1;HPM_P2
2023/01/19 00:01:26;;;;;;;;;32.75;29.00;;;;;20.59;41.73;100523.50;5057705;28;45297;-70
2023/01/19 00:03:52;;;;;;;;;24.75;23.50;;;;;20.50;42.18;100514.81;5057493;28;45279;-70
2023/01/19 00:06:17;;;;;;;;;27.00;24.50;;;;;20.58;42.00;100524.47;5039732;28;45414;-69
2023/01/19 00:08:44;;;;;;;;;25.75;24.75;;;;;20.59;41.69;100522.66;5057721;28;45325;-69
2023/01/19 00:11:11;;;;;;;;;29.50;29.50;;;;;20.59;42.20;100527.94;5057604;28;45500;-70
2023/01/19 00:13:37;;;;;;;;;27.75;27.75;;;;;20.54;41.79;100520.56;5056965;28;47238;-69
2023/01/19 00:16:02;;;;;;;;;27.00;26.25;;;;;20.55;41.63;100522.22;5039530;28;45879;-70
2023/01/19 00:18:28;;;;;;;;;32.00;28.50;;;;;20.57;41.69;100525.50;5057557;28;45336;-70
2023/01/19 00:20:53;;;;;;;;;27.75;25.25;;;;;20.49;41.80;100510.53;5057407;28;45303;-69
2023/01/19 00:23:19;;;;;;;;;28.25;25.75;;;;;20.58;41.51;100526.31;5057366;28;46772;-69
2023/01/19 00:25:46;;;;;;;;;28.00;24.75;;;;;20.57;41.31;100527.31;5057285;28;45312;-69
2023/01/19 00:28:15;;;;;;;;;31.00;28.00;;;;;20.57;41.74;100530.78;5056970;28;45297;-70
2023/01/19 00:30:41;;;;;;;;;31.75;29.75;;;;;20.48;41.52;100519.44;5057079;28;45392;-69
2023/01/19 00:33:07;;;;;;;;;29.00;27.00;;;;;20.56;41.72;100530.94;5057120;28;45562;-70
2023/01/19 00:35:34;;;;;;;;;29.50;24.50;;;;;20.56;41.76;100533.59;5057071;28;45351;-69
2023/01/19 00:38:00;;;;;;;;;29.50;26.75;;;;;20.55;41.59;100532.78;5057184;28;45388;-69
2023/01/19 00:40:25;;;;;;;;;28.25;25.00;;;;;20.55;41.90;100539.88;5056939;28;45226;-70
2023/01/19 00:42:51;;;;;;;;;26.50;25.00;;;;;20.55;41.72;100537.25;5056665;28;46276;-69
2023/01/19 00:45:22;;;;;;;;;26.75;23.75;;;;;20.54;41.58;100533.78;5056818;28;45360;-69
2023/01/19 00:47:53;;;;;;;;;27.50;26.25;;;;;20.51;41.71;100528.84;5057080;28;45297;-69
2023/01/19 00:50:19;;;;;;;;;27.00;27.00;;;;;20.53;41.82;100536.59;5056869;28;45289;-69
2023/01/19 00:52:45;;;;;;;;;28.25;27.25;;;;;20.52;41.49;100530.50;5056411;28;46343;-69
2023/01/19 00:55:12;;;;;;;;;30.00;28.75;;;;;20.51;41.55;100536.75;5056914;28;45701;-70
2023/01/19 00:57:39;;;;;;;;;27.50;23.00;;;;;20.50;41.39;100541.25;5055602;28;45305;-69
2023/01/19 01:00:07;;;;;;;;;28.50;26.75;;;;;20.45;41.14;100529.56;5056747;28;45442;-70
2023/01/19 01:02:33;;;;;;;;;27.50;25.00;;;;;20.49;41.47;100531.66;5056507;28;47078;-69
2023/01/19 01:05:01;;;;;;;;;27.25;26.50;;;;;20.49;41.50;100530.84;5056654;28;45380;-69
2023/01/19 01:07:28;;;;;;;;;18.75;17.25;;;;;20.49;41.50;100538.78;5055794;28;45393;-69
2023/01/19 01:09:55;;;;;;;;;28.25;26.75;;;;;20.48;41.49;100543.22;5056696;28;45408;-69
2023/01/19 01:12:21;;;;;;;;;27.75;26.00;;;;;20.49;41.44;100546.69;5056039;28;46369;-69
2023/01/19 01:14:46;;;;;;;;;16.75;15.00;;;;;20.48;41.54;100537.94;5055759;28;45447;-69
2023/01/19 01:17:13;;;;;;;;;26.00;21.50;;;;;20.47;41.43;100541.59;5056458;28;45368;-70
2023/01/19 01:19:39;;;;;;;;;26.75;24.75;;;;;20.43;41.35;100535.00;5056550;28;45477;-69
2023/01/19 01:22:05;;;;;;;;;33.25;23.25;;;;;20.40;41.44;100524.81;5056149;28;46327;-69
2023/01/19 01:24:30;;;;;;;;;25.75;25.75;;;;;20.48;41.25;100545.06;5055562;28;45321;-69
2023/01/19 01:26:56;;;;;;;;;28.50;25.00;;;;;20.38;41.33;100540.84;5056172;28;45376;-69
2023/01/19 01:29:21;;;;;;;;;25.50;22.50;;;;;20.49;41.34;100557.28;5056247;28;45356;-69
2023/01/19 01:31:46;;;;;;;;;25.00;22.50;;;;;20.49;41.31;100550.16;5055371;28;45364;-69
2023/01/19 01:34:12;;;;;;;;;26.00;22.00;;;;;20.50;41.69;100554.47;5056387;28;45316;-69
2023/01/19 01:36:37;;;;;;;;;23.75;23.75;;;;;20.50;41.45;100554.47;5056297;28;45322;-69
2023/01/19 01:39:03;;;;;;;;;28.50;25.50;;;;;20.51;41.33;100563.19;5056308;28;45285;-69
2023/01/19 01:41:28;;;;;;;;;30.25;25.00;;;;;20.50;41.53;100551.00;5055668;28;46221;-69
2023/01/19 01:44:00;;;;;;;;;23.25;21.00;;;;;20.51;41.26;100560.56;5056172;28;45436;-70
2023/01/19 01:46:27;;;;;;;;;24.00;21.75;;;;;20.51;41.24;100563.19;5056065;28;45382;-69
2023/01/19 01:49:02;;;;;;;;;24.00;23.25;;;;;20.51;41.25;100574.59;5018167;28;45293;-69
2023/01/19 01:51:40;;;;;;;;;24.50;24.50;;;;;20.39;41.45;100553.06;5035416;28;46405;-70
2023/01/19 01:54:27;;;;;;;;;25.50;23.75;;;;;20.51;41.33;100568.47;5035433;28;45290;-70
2023/01/19 01:56:56;;;;;;;;;23.75;21.75;;;;;20.51;41.13;100571.94;5035836;28;45246;-69
2023/01/19 01:59:28;;;;;;;;;25.25;24.75;;;;;20.50;40.98;100580.91;5035801;28;45366;-70
2023/01/19 02:05:04;;;;;;;;;26.50;23.00;;;;;20.50;40.99;100586.19;4993566;28;45361;-69
2023/01/19 02:13:34;;;;;;;;;25.75;21.00;;;;;20.49;40.93;100589.81;4896984;29;45475;-69
2023/01/19 02:16:05;;;;;;;;;19.00;18.25;;;;;20.49;41.32;100586.34;4896958;29;45432;-69
2023/01/19 02:18:31;;;;;;;;;25.50;22.00;;;;;20.46;41.04;100576.13;4901632;29;45336;-69
2023/01/19 02:20:56;;;;;;;;;26.25;21.50;;;;;20.50;41.22;100583.53;4903192;29;45410;-69
2023/01/19 02:23:51;;;;;;;;;26.25;20.00;;;;;20.50;41.45;100588.81;4902689;29;46090;-69
2023/01/19 02:26:20;;;;;;;;;28.25;26.50;;;;;20.50;41.31;100603.84;4903280;29;45365;-69
2023/01/19 02:28:51;;;;;;;;;26.75;20.50;;;;;20.51;41.49;100598.38;4903164;29;45468;-69
2023/01/19 02:31:17;;;;;;;;;27.75;23.50;;;;;20.51;41.29;100601.03;4903028;29;45318;-69
2023/01/19 02:33:43;;;;;;;;;24.75;22.75;;;;;20.52;41.29;100604.50;4902807;29;46963;-69
2023/01/19 02:36:11;;;;;;;;;29.25;22.50;;;;;20.45;41.58;100588.53;4902911;29;45361;-69
2023/01/19 02:38:37;;;;;;;;;24.75;21.50;;;;;20.45;41.34;100585.88;4902810;29;45360;-69
2023/01/19 02:41:06;;;;;;;;;28.75;25.75;;;;;20.53;41.27;100586.81;4916435;28;45412;-69
2023/01/19 02:43:33;;;;;;;;;28.75;22.00;;;;;20.54;41.53;100593.75;4921980;28;46373;-69
2023/01/19 02:45:58;;;;;;;;;27.25;23.50;;;;;20.54;41.59;100586.63;4921745;28;45412;-70
2023/01/19 02:48:23;;;;;;;;;25.00;21.50;;;;;20.55;41.19;100588.28;5032128;28;45351;-69
2023/01/19 02:50:54;;;;;;;;;28.50;23.75;;;;;20.50;41.45;100594.13;5041847;28;45445;-70
2023/01/19 02:53:52;;;;;;;;;20.75;18.00;;;;;20.56;41.71;100592.56;5039248;28;45352;-69
2023/01/19 02:56:41;;;;;;;;;25.25;23.50;;;;;20.57;41.58;100590.75;5041383;28;45404;-69
2023/01/19 02:59:42;;;;;;;;;21.25;19.50;;;;;20.57;41.36;100594.22;5041695;28;45309;-70
2023/01/19 03:02:07;;;;;;;;;27.25;20.75;;;;;20.56;41.18;100603.13;5041566;28;45354;-69
2023/01/19 03:05:05;;;;;;;;;22.50;21.00;;;;;20.56;41.27;100597.03;5041473;28;47035;-69
2023/01/19 03:07:33;;;;;;;;;24.50;19.75;;;;;20.54;41.42;100602.50;5040163;28;45531;-69
2023/01/19 03:10:10;;;;;;;;;28.00;23.00;;;;;20.55;41.19;100616.53;5041544;28;45282;-69
2023/01/19 03:12:45;;;;;;;;;18.50;17.25;;;;;20.54;41.49;100609.59;5041442;28;45458;-69
2023/01/19 03:15:41;;;;;;;;;26.00;22.75;;;;;20.54;40.90;100601.66;5041551;28;46182;-69
2023/01/19 03:18:11;;;;;;;;;23.00;21.00;;;;;20.47;41.56;100599.75;5040666;28;45282;-69
2023/01/19 03:20:39;;;;;;;;;28.00;24.00;;;;;20.53;41.25;100611.44;5041515;28;45458;-69
2023/01/19 03:23:09;;;;;;;;;18.75;16.50;;;;;20.52;41.07;100612.44;5041090;28;45427;-69
2023/01/19 03:25:39;;;;;;;;;18.50;15.00;;;;;20.51;41.30;100608.97;5041291;28;46013;-69
2023/01/19 03:28:04;;;;;;;;;21.50;21.50;;;;;20.52;41.32;100609.78;5040627;28;45304;-69
2023/01/19 03:30:37;;;;;;;;;24.00;18.50;;;;;20.46;41.12;100594.63;5035757;28;45899;-69
2023/01/19 03:33:15;;;;;;;;;21.25;17.00;;;;;20.49;41.03;100595.09;5038119;28;45342;-69
2023/01/19 03:35:47;;;;;;;;;19.50;18.50;;;;;20.50;41.04;100601.22;5037578;28;46341;-69
2023/01/19 03:38:16;;;;;;;;;24.50;20.00;;;;;20.50;41.06;100598.56;5037883;28;45368;-69
2023/01/19 03:40:42;;;;;;;;;14.00;14.00;;;;;20.49;40.85;100594.28;5037274;28;45418;-69
2023/01/19 03:43:09;;;;;;;;;22.25;19.25;;;;;20.49;41.09;100592.47;5037812;28;45409;-69
2023/01/19 03:45:37;;;;;;;;;24.75;18.00;;;;;20.39;40.77;100574.19;5042264;28;46280;-69
2023/01/19 03:48:04;;;;;;;;;22.75;19.75;;;;;20.47;40.75;100588.34;5057626;28;45328;-70
2023/01/19 03:50:30;;;;;;;;;21.00;18.25;;;;;20.46;40.79;100590.16;5057487;28;45440;-70
2023/01/19 03:53:08;;;;;;;;;25.00;18.00;;;;;20.47;40.78;100589.16;5056894;28;45336;-69
2023/01/19 03:55:35;;;;;;;;;19.25;16.25;;;;;20.44;40.84;100589.53;5057752;28;45424;-69
2023/01/19 03:58:01;;;;;;;;;19.75;16.50;;;;;20.45;40.59;100585.06;5057625;28;45395;-69
2023/01/19 04:00:27;;;;;;;;;20.25;19.75;;;;;20.36;40.85;100573.72;5057638;28;45358;-69
2023/01/19 04:02:52;;;;;;;;;23.25;19.00;;;;;20.43;40.88;100582.56;5057907;28;45519;-69
2023/01/19 04:05:18;;;;;;;;;19.50;18.25;;;;;20.44;40.77;100583.41;5057112;28;46927;-69
2023/01/19 04:07:43;;;;;;;;;23.00;20.50;;;;;20.33;40.60;100564.31;5057708;28;45386;-69
2023/01/19 04:10:11;;;;;;;;;19.50;15.75;;;;;20.43;41.05;100581.78;5057595;28;45571;-69
2023/01/19 04:12:38;;;;;;;;;15.75;15.00;;;;;20.44;40.80;100588.69;5057763;28;45369;-69
2023/01/19 04:15:04;;;;;;;;;18.25;18.00;;;;;20.43;40.60;100582.56;5057390;28;46198;-70
2023/01/19 04:17:30;;;;;;;;;19.25;17.00;;;;;20.43;40.79;100579.94;5057245;28;45277;-69
2023/01/19 04:19:56;;;;;;;;;22.75;18.25;;;;;20.44;40.75;100580.75;5057066;28;45390;-69
2023/01/19 04:22:21;;;;;;;;;17.75;16.75;;;;;20.43;40.95;100584.41;5057205;28;46512;-69
2023/01/19 04:24:46;;;;;;;;;21.75;17.75;;;;;20.43;40.90;100579.94;5057281;28;46045;-69
2023/01/19 04:27:13;;;;;;;;;14.50;14.50;;;;;20.43;41.12;100581.78;5056453;28;45401;-69
2023/01/19 04:29:39;;;;;;;;;22.25;19.00;;;;;20.43;40.59;100589.72;5057434;28;45348;-70
2023/01/19 04:32:04;;;;;;;;;18.50;16.75;;;;;20.43;40.54;100598.44;5057044;28;45351;-69
2023/01/19 04:34:29;;;;;;;;;23.25;17.00;;;;;20.42;40.58;100596.81;5056815;28;45384;-70
2023/01/19 04:36:55;;;;;;;;;20.50;17.00;;;;;20.39;40.66;100591.88;5057243;28;45376;-69
2023/01/19 04:39:21;;;;;;;;;16.50;16.50;;;;;20.43;40.83;100597.63;5057216;28;45336;-69
2023/01/19 04:41:47;;;;;;;;;18.75;16.50;;;;;20.38;40.58;100588.41;5057028;28;45469;-69
2023/01/19 04:44:12;;;;;;;;;16.00;15.50;;;;;20.29;40.43;100570.97;5056748;28;46161;-69
2023/01/19 04:46:38;;;;;;;;;20.50;15.75;;;;;20.39;40.37;100590.06;5055874;28;45454;-69
2023/01/19 04:49:03;;;;;;;;;17.00;16.00;;;;;20.39;40.37;100590.06;5056771;28;45388;-69
2023/01/19 04:51:28;;;;;;;;;21.25;15.25;;;;;20.39;40.48;100594.50;5056694;28;45323;-69
2023/01/19 04:53:54;;;;;;;;;16.50;16.50;;;;;20.39;40.56;100594.50;5055807;28;46329;-69
2023/01/19 04:56:19;;;;;;;;;15.50;15.00;;;;;20.38;40.60;100593.69;5055544;28;45340;-69
2023/01/19 04:58:44;;;;;;;;;9.75;7.00;;;;;20.33;40.63;100587.25;5056949;28;45346;-69
2023/01/19 05:01:10;;;;;;;;;22.25;18.25;;;;;20.38;40.46;100598.97;5039019;28;45428;-69
2023/01/19 05:03:35;;;;;;;;;16.25;16.25;;;;;20.37;40.70;100589.41;5038127;28;49054;-69
2023/01/19 05:06:00;;;;;;;;;21.50;14.75;;;;;20.36;40.73;100594.84;5056640;28;45388;-69
2023/01/19 05:08:26;;;;;;;;;18.50;17.50;;;;;20.37;40.40;100601.78;5056785;28;45421;-69
2023/01/19 05:10:51;;;;;;;;;17.50;15.00;;;;;20.36;40.71;100600.13;5038524;28;45311;-69
2023/01/19 05:13:17;;;;;;;;;18.75;14.25;;;;;20.35;40.39;100601.94;5056601;28;45785;-69
2023/01/19 05:15:42;;;;;;;;;18.25;16.50;;;;;20.34;40.63;100597.69;5056590;28;45386;-69
2023/01/19 05:18:07;;;;;;;;;16.75;14.25;;;;;20.34;40.64;100602.97;5056288;28;45356;-69
2023/01/19 05:20:32;;;;;;;;;16.75;15.00;;;;;20.35;40.16;100603.78;5056438;28;45293;-69
2023/01/19 05:22:58;;;;;;;;;16.00;11.75;;;;;20.34;40.57;100595.03;5056415;28;46853;-69
2023/01/19 05:25:23;;;;;;;;;18.50;13.25;;;;;20.33;40.33;100601.31;5056262;28;45380;-69
2023/01/19 05:27:48;;;;;;;;;15.75;15.75;;;;;20.26;40.09;100597.72;5056635;28;45251;-69
2023/01/19 05:30:14;;;;;;;;;17.75;14.50;;;;;20.32;40.31;100602.31;5056350;28;45370;-69
2023/01/19 05:32:40;;;;;;;;;17.25;13.50;;;;;20.31;40.35;100600.66;5055848;28;46009;-69
2023/01/19 05:35:06;;;;;;;;;13.50;13.50;;;;;20.32;40.19;100604.13;5056344;28;45404;-69
2023/01/19 05:37:31;;;;;;;;;14.50;11.50;;;;;20.31;40.41;100595.38;5056329;28;45376;-68
2023/01/19 05:39:57;;;;;;;;;17.25;14.00;;;;;20.31;40.14;100598.03;5056093;28;45250;-69
2023/01/19 05:42:22;;;;;;;;;14.00;13.50;;;;;20.32;40.41;100601.50;5056100;28;45458;-69
2023/01/19 05:44:47;;;;;;;;;13.75;12.75;;;;;20.32;40.46;100606.78;5055595;28;45363;-69
2023/01/19 05:47:13;;;;;;;;;13.50;13.50;;;;;20.32;40.20;100606.78;5055616;28;45260;-69
2023/01/19 05:49:38;;;;;;;;;15.75;14.25;;;;;20.30;40.28;100601.66;5054971;28;45368;-69
2023/01/19 05:52:03;;;;;;;;;13.75;12.75;;;;;20.32;40.35;100604.13;5055048;28;45214;-69
2023/01/19 05:54:29;;;;;;;;;15.25;13.25;;;;;20.31;40.29;100602.47;5055955;28;45333;-69
2023/01/19 05:56:54;;;;;;;;;12.50;8.00;;;;;20.31;40.18;100603.31;5054776;28;45424;-69
2023/01/19 05:59:22;;;;;;;;;21.25;14.75;;;;;20.32;40.16;100612.06;5056036;28;45383;-69
2023/01/19 06:01:49;;;;;;;;;14.75;13.00;;;;;20.32;40.35;100612.06;5055332;28;47230;-69
2023/01/19 06:04:15;;;;;;;;;13.25;13.25;;;;;20.31;40.35;100613.88;5055849;28;45490;-69
2023/01/19 06:06:40;;;;;;;;;20.00;17.75;;;;;20.31;40.10;100618.31;5056039;28;45364;-69
2023/01/19 06:09:06;;;;;;;;;15.00;13.25;;;;;20.28;40.13;100615.03;5055847;28;45348;-69
2023/01/19 06:11:32;;;;;;;;;15.25;12.25;;;;;20.31;40.39;100621.81;5055622;28;46483;-69
2023/01/19 06:13:57;;;;;;;;;15.00;12.00;;;;;20.31;40.12;100618.31;5055581;28;45453;-69
2023/01/19 06:16:22;;;;;;;;;20.25;14.75;;;;;20.21;40.41;100598.25;5055581;28;45330;-69
2023/01/19 06:18:48;;;;;;;;;21.50;12.75;;;;;20.28;40.26;100611.56;5055826;28;45274;-69
2023/01/19 06:21:13;;;;;;;;;16.50;14.00;;;;;20.24;40.06;100603.19;5055523;28;45407;-69
2023/01/19 06:23:38;;;;;;;;;14.50;13.75;;;;;20.28;40.58;100612.41;5055658;28;45428;-69
2023/01/19 06:26:04;;;;;;;;;17.50;11.75;;;;;20.28;40.20;100614.22;5055616;28;45436;-69
2023/01/19 06:28:29;;;;;;;;;13.00;11.25;;;;;20.25;40.06;100607.47;5055634;28;45372;-69
2023/01/19 06:30:55;;;;;;;;;12.25;12.25;;;;;20.27;40.19;100613.38;5055013;28;45428;-69
2023/01/19 06:33:21;;;;;;;;;19.00;14.50;;;;;20.27;40.21;100610.75;5055461;28;45403;-69
2023/01/19 06:35:48;;;;;;;;;11.25;11.00;;;;;20.22;40.21;100602.53;5055698;28;45339;-69
2023/01/19 06:38:17;;;;;;;;;15.75;14.25;;;;;20.26;40.46;100614.41;5055603;28;45323;-69
2023/01/19 06:40:43;;;;;;;;;9.50;9.50;;;;;20.26;40.30;100610.94;5055135;28;47200;-68
2023/01/19 06:43:09;;;;;;;;;13.25;9.75;;;;;20.25;40.33;100604.00;5055384;28;45220;-69
2023/01/19 06:45:35;;;;;;;;;16.00;12.00;;;;;20.25;40.39;100596.06;5054880;28;45241;-74
2023/01/19 06:48:03;;;;;;;;;12.00;9.00;;;;;20.25;40.07;100598.72;5055218;28;45368;-69
2023/01/19 06:50:28;;;;;;;;;13.00;13.00;;;;;20.24;39.65;100595.28;5054962;28;47081;-69
2023/01/19 06:52:53;;;;;;;;;17.50;13.25;;;;;20.24;40.07;100597.91;5055309;28;45459;-69
2023/01/19 06:55:19;;;;;;;;;11.25;11.25;;;;;20.23;40.05;100598.06;5055410;28;45394;-69
2023/01/19 06:57:44;;;;;;;;;14.50;13.00;;;;;20.17;40.18;100583.72;5055448;28;45326;-71
2023/01/19 07:00:11;;;;;;;;;12.75;12.25;;;;;20.24;39.89;100607.66;5054816;28;45812;-73
2023/01/19 07:02:41;;;;;;;;;13.25;12.25;;;;;20.24;40.04;100605.84;5054530;28;45351;-71
2023/01/19 07:05:08;;;;;;;;;18.25;15.00;;;;;20.24;39.93;100618.22;5056873;28;45423;-69
2023/01/19 07:07:33;;;;;;;;;13.75;12.00;;;;;20.25;40.17;100625.13;5058694;28;45362;-70
2023/01/19 07:09:59;;;;;;;;;12.00;12.00;;;;;20.25;40.44;100625.13;5058424;28;46242;-71
2023/01/19 07:12:24;;;;;;;;;12.00;9.75;;;;;20.26;40.95;100627.63;5058638;28;45364;-70
2023/01/19 07:14:50;;;;;;;;;15.50;13.75;;;;;20.20;41.04;100625.66;5058356;28;45375;-71
2023/01/19 07:17:15;;;;;;;;;11.75;11.75;;;;;20.24;41.16;100623.50;5058653;28;45332;-70
2023/01/19 07:19:41;;;;;;;;;13.50;11.50;;;;;20.28;41.33;100625.63;5058159;28;46952;-81
2023/01/19 07:22:06;;;;;;;;;13.00;10.25;;;;;20.28;41.07;100622.16;5058256;28;45396;-71
2023/01/19 07:24:36;;;;;;;;;10.75;10.00;;;;;20.27;41.38;100615.22;5058138;28;45281;-69
2023/01/19 07:27:02;;;;;;;;;11.00;11.00;;;;;20.30;41.50;100620.16;5058364;28;45371;-70
2023/01/19 07:29:27;;;;;;;;;13.00;11.75;;;;;20.32;41.54;100609.41;5036048;28;46547;-69
2023/01/19 07:31:53;;;;;;;;;11.25;10.50;;;;;20.30;41.75;100612.22;5033951;28;45475;-69
2023/01/19 07:34:19;;;;;;;;;9.75;7.75;;;;;20.29;41.81;100610.59;5052811;28;45377;-70
2023/01/19 07:36:45;;;;;;;;;10.75;10.75;;;;;20.27;41.70;100605.47;5052522;28;45375;-69
2023/01/19 07:39:11;;;;;;;;;10.00;9.50;;;;;20.28;41.64;100608.94;5051441;28;46035;-69
2023/01/19 07:41:36;;;;;;;;;11.00;11.00;;;;;20.32;41.50;100615.53;5053746;28;45523;-69
2023/01/19 07:44:02;;;;;;;;;7.50;7.50;;;;;20.21;41.44;100597.41;5049188;28;45519;-69
2023/01/19 07:46:27;;;;;;;;;14.25;12.75;;;;;20.31;41.48;100615.69;5052703;28;45558;-69
2023/01/19 07:48:52;;;;;;;;;11.75;10.00;;;;;20.31;41.61;100613.88;5051891;28;47067;-69
2023/01/19 07:51:17;;;;;;;;;9.00;9.00;;;;;20.30;41.52;100609.56;5052649;28;45774;-69
2023/01/19 07:53:44;;;;;;;;;14.75;11.00;;;;;20.22;41.66;100601.72;5051555;28;45526;-69
2023/01/19 07:56:10;;;;;;;;;9.00;9.00;;;;;20.26;41.24;100610.94;5053544;28;45515;-70
2023/01/19 07:58:36;;;;;;;;;12.00;11.25;;;;;20.29;41.30;100621.16;5052697;28;46445;-69
2023/01/19 08:01:12;;;;;;;;;13.75;10.00;;;;;20.29;41.37;100623.81;5051473;28;45527;-69
2023/01/19 08:03:38;;;;;;;;;12.25;11.00;;;;;20.27;41.42;100617.88;5053745;28;45432;-68
2023/01/19 08:06:04;;;;;;;;;12.25;10.50;;;;;20.28;41.25;100622.97;5053582;28;45443;-69
2023/01/19 08:08:33;;;;;;;;;13.00;10.00;;;;;20.26;41.42;100617.03;5051950;28;47191;-69
2023/01/19 08:10:58;;;;;;;;;12.00;10.00;;;;;20.24;41.36;100616.41;5047124;28;45495;-69
2023/01/19 08:13:26;;;;;;;;;9.75;8.75;;;;;20.16;41.38;100603.22;5052051;28;45599;-69
2023/01/19 08:15:52;;;;;;;;;12.00;10.75;;;;;20.26;41.39;100619.69;5051563;28;45536;-69
2023/01/19 08:18:18;;;;;;;;;14.00;11.50;;;;;20.22;41.59;100618.38;5053185;28;45469;-69
2023/01/19 08:20:44;;;;;;;;;9.75;9.75;;;;;20.26;41.32;100618.84;5051647;28;45457;-70
2023/01/19 08:23:10;;;;;;;;;9.75;8.50;;;;;20.25;41.00;100619.84;5051685;28;45344;-70
2023/01/19 08:25:43;;;;;;;;;12.00;8.75;;;;;20.19;41.22;100610.81;5031131;28;45448;-67
2023/01/19 08:28:09;;;;;;;;;10.75;9.50;;;;;20.26;41.32;100621.50;5051104;28;46239;-69
2023/01/19 08:30:35;;;;;;;;;12.25;8.75;;;;;20.17;41.21;100613.63;5053117;28;45458;-70
2023/01/19 08:33:03;;;;;;;;;4.50;4.50;;;;;20.12;41.33;100610.66;5034457;28;45588;-68
2023/01/19 08:35:35;;;;;;;;;11.50;8.25;;;;;20.25;41.26;100623.31;5051983;28;45465;-70
2023/01/19 08:38:01;;;;;;;;;9.00;9.00;;;;;20.25;41.19;100627.75;5052388;28;47258;-70
2023/01/19 08:40:28;;;;;;;;;8.75;8.00;;;;;20.24;41.24;100618.22;5050667;28;45554;-70
2023/01/19 08:42:59;;;;;;;;;13.25;10.75;;;;;20.21;41.28;100614.09;5052654;28;45901;-70
2023/01/19 08:45:26;;;;;;;;;11.50;10.25;;;;;20.22;41.12;100623.66;5051934;28;45534;-69
2023/01/19 08:47:51;;;;;;;;;13.25;9.25;;;;;20.12;40.92;100608.03;5052123;28;47028;-67
2023/01/19 08:50:16;;;;;;;;;12.50;10.25;;;;;20.24;40.88;100631.41;5051037;28;45444;-70
2023/01/19 08:52:42;;;;;;;;;14.75;10.25;;;;;20.21;41.01;100629.94;5051383;28;45565;-70
2023/01/19 08:55:08;;;;;;;;;9.00;9.00;;;;;20.22;41.05;100626.28;5051778;28;45530;-69
2023/01/19 08:57:33;;;;;;;;;12.25;9.75;;;;;20.21;40.86;100629.13;5052698;28;45567;-69
2023/01/19 08:59:58;;;;;;;;;12.75;12.75;;;;;20.21;41.03;100629.94;5033406;28;45712;-69
2023/01/19 09:02:24;;;;;;;;;8.25;8.00;;;;;20.21;41.10;100632.59;5052774;28;45852;-69
2023/01/19 09:04:49;;;;;;;;;12.25;9.25;;;;;20.20;40.82;100630.09;5051614;28;45573;-69
2023/01/19 09:07:14;;;;;;;;;11.00;7.00;;;;;20.17;40.95;100632.09;5052467;28;49359;-69
2023/01/19 09:09:42;;;;;;;;;10.25;9.00;;;;;20.19;40.82;100637.22;5051881;28;45599;-70
2023/01/19 09:12:07;;;;;;;;;11.25;10.25;;;;;20.20;40.89;100638.03;5052531;28;45492;-70
2023/01/19 09:14:32;;;;;;;;;10.50;9.50;;;;;20.20;41.04;100643.31;5052823;28;45417;-69
2023/01/19 09:16:58;;;;;;;;;12.00;9.25;;;;;20.17;40.58;100637.38;5051214;28;46602;-69
2023/01/19 09:19:23;;;;;;;;;16.50;9.50;;;;;20.19;40.83;100642.50;5049637;28;46280;-68
2023/01/19 09:21:49;;;;;;;;;9.00;8.00;;;;;20.19;40.78;100647.81;5029490;28;45566;-69
2023/01/19 09:24:14;;;;;;;;;9.50;9.50;;;;;20.18;40.97;100648.78;5055607;28;45389;-68
2023/01/19 09:26:40;;;;;;;;;9.50;8.75;;;;;20.17;41.07;100647.94;5053700;28;45404;-67
2023/01/19 09:29:05;;;;;;;;;6.75;6.00;;;;;20.18;41.00;100646.13;5055924;28;45567;-69
2023/01/19 09:31:30;;;;;;;;;10.25;9.25;;;;;20.17;40.75;100652.41;5056202;28;45706;-69
2023/01/19 09:33:56;;;;;;;;;7.75;7.50;;;;;20.12;40.62;100641.53;5053554;28;45285;-68
2023/01/19 09:36:21;;;;;;;;;8.00;6.75;;;;;20.17;40.53;100647.13;5035986;28;46816;-67
2023/01/19 09:38:46;;;;;;;;;8.00;8.00;;;;;20.15;40.50;100642.03;5035671;28;45274;-68
2023/01/19 09:41:20;;;;;;;;;10.50;9.00;;;;;20.16;40.79;100650.78;5036063;28;45266;-67
2023/01/19 09:43:55;;;;;;;;;11.25;9.00;;;;;20.15;40.83;100644.66;5041997;28;45464;-69
2023/01/19 09:46:26;;;;;;;;;9.50;9.50;;;;;20.15;41.05;100649.13;5055769;28;46345;-68
2023/01/19 09:48:57;;;;;;;;;10.00;10.00;;;;;20.08;40.70;100638.41;5047269;28;45467;-69
2023/01/19 09:51:38;;;;;;;;;10.75;10.00;;;;;20.15;40.55;100638.56;5049549;28;45425;-69
2023/01/19 09:54:14;;;;;;;;;9.75;8.25;;;;;20.08;40.27;100625.19;5055580;28;45429;-69
2023/01/19 09:56:41;;;;;;;;;9.25;8.25;;;;;20.14;40.74;100650.94;5055704;28;47142;-69
2023/01/19 09:59:28;;;;;;;;;6.50;6.50;;;;;20.13;40.90;100649.31;5037750;28;45762;-69
2023/01/19 10:02:27;;;;;;;;;11.75;9.00;;;;;20.14;40.62;100647.50;5055801;28;45413;-68
2023/01/19 10:04:57;;;;;;;;;8.50;8.50;;;;;20.08;40.74;100641.03;5054161;28;45351;-69
2023/01/19 10:07:36;;;;;;;;;8.25;7.75;;;;;20.14;40.48;100652.78;5055345;28;46340;-68
2023/01/19 10:10:11;;;;;;;;;10.25;8.75;;;;;20.13;40.72;100659.88;5055284;28;45459;-68
2023/01/19 10:12:45;;;;;;;;;8.50;8.25;;;;;20.13;40.58;100651.94;5055855;28;45355;-68
2023/01/19 10:15:17;;;;;;;;;10.00;8.50;;;;;20.14;40.71;100658.84;5055799;28;45474;-68
2023/01/19 10:18:00;;;;;;;;;10.00;10.00;;;;;20.14;40.35;100652.78;5055467;28;47407;-68
2023/01/19 10:20:32;;;;;;;;;6.50;6.50;;;;;20.13;40.64;100659.88;5055537;28;45400;-68
2023/01/19 10:22:58;;;;;;;;;9.75;9.25;;;;;20.09;40.58;100655.06;5055518;28;45415;-68
2023/01/19 10:25:25;;;;;;;;;8.75;8.75;;;;;20.13;40.55;100659.03;5055753;28;45340;-68
2023/01/19 10:27:51;;;;;;;;;10.00;9.00;;;;;20.13;40.30;100651.13;5055539;28;46286;-68
2023/01/19 10:30:26;;;;;;;;;9.50;8.75;;;;;20.10;40.53;100657.53;5055396;28;45285;-68
2023/01/19 10:32:52;;;;;;;;;8.00;8.00;;;;;20.03;40.36;100638.09;5055769;28;45360;-68
2023/01/19 10:35:23;;;;;;;;;13.75;8.75;;;;;20.12;40.60;100646.81;5037337;28;45456;-68
2023/01/19 10:37:50;;;;;;;;;7.25;7.25;;;;;20.10;40.37;100651.44;5055005;28;47037;-68
2023/01/19 10:40:27;;;;;;;;;7.75;7.75;;;;;20.12;40.32;100652.94;5040737;28;45364;-68
2023/01/19 10:42:55;;;;;;;;;8.25;8.25;;;;;20.11;40.65;100647.81;5059347;28;45373;-68
2023/01/19 10:45:24;;;;;;;;;10.00;8.75;;;;;20.11;40.44;100648.63;5058896;28;46652;-68
2023/01/19 10:47:52;;;;;;;;;9.25;8.75;;;;;20.11;40.09;100642.50;5058562;28;46252;-68
2023/01/19 10:50:20;;;;;;;;;8.00;7.75;;;;;20.10;40.34;100654.91;5058743;28;45366;-68
2023/01/19 10:52:49;;;;;;;;;7.50;6.25;;;;;20.10;40.58;100652.25;5058393;28;45297;-68
2023/01/19 10:55:42;;;;;;;;;9.75;8.25;;;;;20.11;40.30;100647.81;5040900;28;45315;-68
2023/01/19 10:58:27;;;;;;;;;7.00;7.00;;;;;20.11;40.57;100651.28;5058669;28;45309;-68
2023/01/19 11:00:52;;;;;;;;;7.25;7.25;;;;;20.10;40.14;100641.69;5058636;28;45269;-68
2023/01/19 11:03:28;;;;;;;;;8.25;8.25;;;;;20.11;40.32;100639.88;5058745;28;45340;-68
2023/01/19 11:06:17;;;;;;;;;8.25;6.00;;;;;20.10;40.53;100640.84;5058455;28;45355;-69
2023/01/19 11:08:45;;;;;;;;;6.50;6.25;;;;;20.09;40.29;100647.94;5058374;28;46374;-68
2023/01/19 11:11:13;;;;;;;;;12.25;8.75;;;;;20.10;40.39;100651.44;5058324;28;45446;-68
2023/01/19 11:13:41;;;;;;;;;6.50;6.50;;;;;20.09;40.37;100639.22;5057888;28;45426;-68
2023/01/19 11:16:27;;;;;;;;;6.75;6.75;;;;;20.09;40.23;100641.88;5058484;28;45360;-68
2023/01/19 11:18:55;;;;;;;;;8.50;8.50;;;;;20.09;40.37;100641.88;5058368;28;45349;-68
2023/01/19 11:21:24;;;;;;;;;7.50;7.50;;;;;20.06;40.21;100628.00;5057819;28;45408;-68
2023/01/19 11:23:52;;;;;;;;;8.25;7.00;;;;;20.04;40.18;100634.44;5058352;28;45305;-68
2023/01/19 11:26:32;;;;;;;;;8.00;6.50;;;;;20.08;40.19;100633.13;5058405;28;45445;-68